Αρχική σελίδα
METAR-TAF:

METAR-TAF

Αεροδρόμια :

Τύνιδα, Τυνησία

γεωγραφικό πλάτος: 36-50N, γεωγραφικό μήκος: 010-14E, υψόμετρο: 3 μ

Παρών καιρός

Η αναφορά έγινε 34 λεπτά πριν, στις 04:00 UTC
Άνεμος 8 kt από
Θερμοκρασία 23°C
Υγρασία 83%
Πίεση 1019 hPa
Ορατότητα 10 χλμ και άνω
Λίγα νέφη σε ύψος 2300 πόδια

METAR: DTTA 230400Z 31008KT 9999 FEW023 23/20 Q1019 NOSIG

Χρόνος: 05:34 (04:34 UTC)

Πρόγνωση Καιρού

Η αναφορά έγινε 5 ώρες και 34 λεπτά πριν, στις 23:00 UTC
Η πρόγνωση ισχύει από τις 23 στις 00 UTC έως τις 23 στις 24 UTC
Άνεμος 8 kt από Δ/BΔ
Ορατότητα 10 χλμ και άνω
Λίγα νέφη σε ύψος 2300 πόδια
Καθιστάμενος
από 23 στις 13 UTC έως τις 23 στις 15 UTC
Άνεμος 10 kt από Β
Καθιστάμενος
από 23 στις 21 UTC έως τις 23 στις 23 UTC
Άνεμος 5 kt από Δ/ΝΔ

TAF: DTTA 222300Z 2300/2324 30008KT 9999 FEW023 BECMG 2313/2315 36010KT BECMG 2321/2323 25005KT

Μετεωρολογικές αναφορές και προγνώσεις για περισσότερα από 4000 αεροδρόμια (δελτία METAR και TAF).

Οι διαθέσιμοι σταθμοί απεικονίζονται στο χάρτη με κίτρινες και κόκκινες κουκκίδες.

Μετακινήστε το ποντίκι πάνω από τις κουκκίδες για να δείτε το όνομα του σταθμού.

Στη συνέχεια, κάντε κλικ για να δείτε τις μετεωρολογικές αναφορές και τις προγνώσεις καιρού.

Για να αλλάξετε το χάρτη: κάντε κλικ στα πράσινα κουμπιά με τον μαύρο σταυρό για να ζουμάρετε, στο πράσινο κουμπί με την παύλα για να αφαιρέσετε το ζουμ ή στα πράσινα βέλη για να αντιπαραβάλλετε χάρτες.


METAR-TAF: